sensor_id;sensor_type;location;lat;lon;timestamp;pressure;altitude;pressure_sealevel;temperature;humidity
50854;BME280;44154;45.506;-122.806;2023-02-27T00:02:02;99996.78;;;24.61;30.53
50854;BME280;44154;45.506;-122.806;2023-02-27T00:04:28;99971.59;;;24.64;30.00
50854;BME280;44154;45.506;-122.806;2023-02-27T00:06:54;100006.91;;;24.65;29.98
50854;BME280;44154;45.506;-122.806;2023-02-27T00:09:20;100018.63;;;24.45;30.37
50854;BME280;44154;45.506;-122.806;2023-02-27T00:11:46;100009.31;;;24.20;30.93
50854;BME280;44154;45.506;-122.806;2023-02-27T00:14:12;100006.28;;;24.06;31.19
50854;BME280;44154;45.506;-122.806;2023-02-27T00:16:38;100005.44;;;23.96;31.21
50854;BME280;44154;45.506;-122.806;2023-02-27T00:19:05;100004.84;;;23.83;31.30
50854;BME280;44154;45.506;-122.806;2023-02-27T00:21:31;100001.81;;;23.75;31.42
50854;BME280;44154;45.506;-122.806;2023-02-27T00:23:57;99990.00;;;23.64;31.48
50854;BME280;44154;45.506;-122.806;2023-02-27T00:26:24;100007.25;;;23.64;31.46
50854;BME280;44154;45.506;-122.806;2023-02-27T00:28:50;100015.66;;;23.58;31.58
50854;BME280;44154;45.506;-122.806;2023-02-27T00:31:16;100014.59;;;23.59;31.51
50854;BME280;44154;45.506;-122.806;2023-02-27T00:33:42;100015.28;;;23.92;31.41
50854;BME280;44154;45.506;-122.806;2023-02-27T00:36:09;100015.06;;;24.39;30.68
50854;BME280;44154;45.506;-122.806;2023-02-27T00:38:35;100003.06;;;24.76;29.91
50854;BME280;44154;45.506;-122.806;2023-02-27T00:41:01;100009.91;;;24.69;29.78
50854;BME280;44154;45.506;-122.806;2023-02-27T00:43:27;100007.16;;;24.48;30.09
50854;BME280;44154;45.506;-122.806;2023-02-27T00:45:53;100009.59;;;24.29;30.65
50854;BME280;44154;45.506;-122.806;2023-02-27T00:48:19;100003.56;;;24.12;30.85
50854;BME280;44154;45.506;-122.806;2023-02-27T00:50:49;100000.78;;;23.96;31.24
50854;BME280;44154;45.506;-122.806;2023-02-27T00:53:15;99991.97;;;23.84;30.85
50854;BME280;44154;45.506;-122.806;2023-02-27T00:55:41;99998.25;;;23.74;31.06
50854;BME280;44154;45.506;-122.806;2023-02-27T00:58:08;99996.03;;;23.66;31.33
50854;BME280;44154;45.506;-122.806;2023-02-27T01:00:34;99982.91;;;23.58;31.41
50854;BME280;44154;45.506;-122.806;2023-02-27T01:03:00;99975.25;;;23.54;31.62
50854;BME280;44154;45.506;-122.806;2023-02-27T01:05:26;99973.41;;;23.81;31.39
50854;BME280;44154;45.506;-122.806;2023-02-27T01:07:53;99971.31;;;24.29;30.67
50854;BME280;44154;45.506;-122.806;2023-02-27T01:10:20;99952.47;;;24.64;30.12
50854;BME280;44154;45.506;-122.806;2023-02-27T01:12:46;99975.69;;;24.76;29.76
50854;BME280;44154;45.506;-122.806;2023-02-27T01:15:12;99969.38;;;24.55;30.19
50854;BME280;44154;45.506;-122.806;2023-02-27T01:17:38;99971.84;;;24.31;30.70
50854;BME280;44154;45.506;-122.806;2023-02-27T01:20:06;99981.41;;;24.08;30.17
50854;BME280;44154;45.506;-122.806;2023-02-27T01:22:33;99974.84;;;23.88;30.96
50854;BME280;44154;45.506;-122.806;2023-02-27T01:24:59;99967.66;;;23.77;31.34
50854;BME280;44154;45.506;-122.806;2023-02-27T01:27:26;99969.53;;;23.66;31.44
50854;BME280;44154;45.506;-122.806;2023-02-27T01:29:52;99973.63;;;23.59;31.86
50854;BME280;44154;45.506;-122.806;2023-02-27T01:32:18;99947.59;;;23.35;31.89
50854;BME280;44154;45.506;-122.806;2023-02-27T01:34:44;99972.50;;;23.54;31.93
50854;BME280;44154;45.506;-122.806;2023-02-27T01:37:10;99976.75;;;23.93;31.74
50854;BME280;44154;45.506;-122.806;2023-02-27T01:39:37;99963.91;;;24.50;30.73
50854;BME280;44154;45.506;-122.806;2023-02-27T01:42:03;99955.69;;;24.76;30.24
50854;BME280;44154;45.506;-122.806;2023-02-27T01:48:37;99961.47;;;24.33;30.92
50854;BME280;44154;45.506;-122.806;2023-02-27T01:50:45;99965.03;;;24.13;31.30
50854;BME280;44154;45.506;-122.806;2023-02-27T01:53:13;99954.06;;;23.98;31.52
50854;BME280;44154;45.506;-122.806;2023-02-27T01:55:40;99946.34;;;23.79;31.83
50854;BME280;44154;45.506;-122.806;2023-02-27T01:58:09;99958.91;;;23.80;31.98
50854;BME280;44154;45.506;-122.806;2023-02-27T02:00:38;99951.81;;;23.74;32.10
50854;BME280;44154;45.506;-122.806;2023-02-27T02:03:29;99954.28;;;23.76;32.26
50854;BME280;44154;45.506;-122.806;2023-02-27T02:06:00;99934.31;;;23.85;31.79
50854;BME280;44154;45.506;-122.806;2023-02-27T02:08:29;99959.81;;;24.53;31.40
50854;BME280;44154;45.506;-122.806;2023-02-27T02:10:58;99946.91;;;24.94;30.32
50854;BME280;44154;45.506;-122.806;2023-02-27T02:13:25;99959.50;;;24.90;30.83
50854;BME280;44154;45.506;-122.806;2023-02-27T02:19:22;99973.75;;;24.51;31.49
50854;BME280;44154;45.506;-122.806;2023-02-27T02:35:08;99965.78;;;23.88;32.48
50854;BME280;44154;45.506;-122.806;2023-02-27T02:37:58;99969.09;;;23.90;32.87
50854;BME280;44154;45.506;-122.806;2023-02-27T02:41:37;99973.50;;;24.32;33.01
50854;BME280;44154;45.506;-122.806;2023-02-27T02:46:50;99965.25;;;24.89;31.31
50854;BME280;44154;45.506;-122.806;2023-02-27T02:49:55;99976.50;;;24.77;31.37
50854;BME280;44154;45.506;-122.806;2023-02-27T02:57:23;99974.84;;;24.19;32.08
50854;BME280;44154;45.506;-122.806;2023-02-27T03:00:04;99964.47;;;23.96;32.28
50854;BME280;44154;45.506;-122.806;2023-02-27T03:02:37;99964.38;;;23.85;32.44
50854;BME280;44154;45.506;-122.806;2023-02-27T03:05:08;99971.75;;;23.75;32.51
50854;BME280;44154;45.506;-122.806;2023-02-27T03:07:44;99962.97;;;23.62;32.93
50854;BME280;44154;45.506;-122.806;2023-02-27T03:10:26;99976.34;;;23.64;34.42
50854;BME280;44154;45.506;-122.806;2023-02-27T03:13:32;99975.53;;;23.63;33.73
50854;BME280;44154;45.506;-122.806;2023-02-27T03:16:32;99984.66;;;24.00;33.76
50854;BME280;44154;45.506;-122.806;2023-02-27T03:19:47;99971.03;;;24.51;32.36
50854;BME280;44154;45.506;-122.806;2023-02-27T03:21:59;99986.91;;;24.85;31.54
50854;BME280;44154;45.506;-122.806;2023-02-27T03:24:32;99981.44;;;24.75;31.40
50854;BME280;44154;45.506;-122.806;2023-02-27T03:27:00;99978.69;;;24.54;31.60
50854;BME280;44154;45.506;-122.806;2023-02-27T03:29:49;99969.97;;;24.32;34.93
50854;BME280;44154;45.506;-122.806;2023-02-27T03:35:08;99978.72;;;24.70;34.14
50854;BME280;44154;45.506;-122.806;2023-02-27T03:37:38;99972.03;;;25.17;32.94
50854;BME280;44154;45.506;-122.806;2023-02-27T03:40:19;99970.38;;;25.37;33.88
50854;BME280;44154;45.506;-122.806;2023-02-27T03:46:11;99955.72;;;24.81;34.30
50854;BME280;44154;45.506;-122.806;2023-02-27T03:48:38;99969.41;;;24.71;33.78
50854;BME280;44154;45.506;-122.806;2023-02-27T03:51:11;99958.16;;;24.57;33.36
50854;BME280;44154;45.506;-122.806;2023-02-27T03:56:50;99972.41;;;24.28;33.38
50854;BME280;44154;45.506;-122.806;2023-02-27T03:59:22;99950.78;;;24.06;33.49
50854;BME280;44154;45.506;-122.806;2023-02-27T04:01:48;99985.78;;;24.04;33.56
50854;BME280;44154;45.506;-122.806;2023-02-27T04:04:16;99974.28;;;23.92;33.38
50854;BME280;44154;45.506;-122.806;2023-02-27T04:06:52;99967.66;;;23.82;33.73
50854;BME280;44154;45.506;-122.806;2023-02-27T04:26:30;99965.84;;;24.19;32.90
50854;BME280;44154;45.506;-122.806;2023-02-27T04:29:17;99968.28;;;24.05;32.91
50854;BME280;44154;45.506;-122.806;2023-02-27T04:37:07;99955.06;;;23.71;33.25
50854;BME280;44154;45.506;-122.806;2023-02-27T04:39:58;99950.69;;;23.65;33.34
50854;BME280;44154;45.506;-122.806;2023-02-27T04:42:31;99958.34;;;23.63;32.95
50854;BME280;44154;45.506;-122.806;2023-02-27T04:45:03;99956.78;;;23.87;33.25
50854;BME280;44154;45.506;-122.806;2023-02-27T04:47:35;99938.75;;;23.97;33.10
50854;BME280;44154;45.506;-122.806;2023-02-27T04:50:15;99954.63;;;24.36;32.31
50854;BME280;44154;45.506;-122.806;2023-02-27T04:52:50;99953.81;;;24.35;32.07
50854;BME280;44154;45.506;-122.806;2023-02-27T04:55:22;99949.69;;;24.22;32.15
50854;BME280;44154;45.506;-122.806;2023-02-27T04:58:01;99939.56;;;24.02;32.55
50854;BME280;44154;45.506;-122.806;2023-02-27T05:00:29;99952.41;;;23.92;32.55
50854;BME280;44154;45.506;-122.806;2023-02-27T05:03:03;99955.09;;;23.81;32.53
50854;BME280;44154;45.506;-122.806;2023-02-27T05:05:33;99957.56;;;23.72;32.82
50854;BME280;44154;45.506;-122.806;2023-02-27T05:08:07;99951.19;;;23.56;33.02
50854;BME280;44154;45.506;-122.806;2023-02-27T05:10:39;99962.38;;;23.55;33.27
50854;BME280;44154;45.506;-122.806;2023-02-27T05:13:12;99963.56;;;23.75;33.60
50854;BME280;44154;45.506;-122.806;2023-02-27T05:15:47;99967.19;;;23.96;33.50
50854;BME280;44154;45.506;-122.806;2023-02-27T05:18:16;99957.06;;;24.17;32.63
50854;BME280;44154;45.506;-122.806;2023-02-27T05:23:53;99969.97;;;24.32;31.85
50854;BME280;44154;45.506;-122.806;2023-02-27T05:35:22;99969.81;;;23.75;32.74
50854;BME280;44154;45.506;-122.806;2023-02-27T05:40:57;99962.13;;;23.56;33.66
50854;BME280;44154;45.506;-122.806;2023-02-27T05:43:33;99952.34;;;23.76;33.52
50854;BME280;44154;45.506;-122.806;2023-02-27T05:46:05;99957.88;;;23.97;32.89
50854;BME280;44154;45.506;-122.806;2023-02-27T05:48:37;99947.53;;;24.24;32.52
50854;BME280;44154;45.506;-122.806;2023-02-27T05:51:07;99952.44;;;24.28;32.14
50854;BME280;44154;45.506;-122.806;2023-02-27T05:53:40;99962.53;;;24.17;32.44
50854;BME280;44154;45.506;-122.806;2023-02-27T05:56:12;99966.09;;;24.02;32.12
50854;BME280;44154;45.506;-122.806;2023-02-27T05:58:46;99968.78;;;23.86;32.45
50854;BME280;44154;45.506;-122.806;2023-02-27T06:01:14;99962.19;;;23.72;32.60
50854;BME280;44154;45.506;-122.806;2023-02-27T06:03:41;99953.97;;;23.62;32.68
50854;BME280;44154;45.506;-122.806;2023-02-27T06:06:13;99952.00;;;23.52;32.80
50854;BME280;44154;45.506;-122.806;2023-02-27T06:08:39;99962.34;;;23.45;32.98
50854;BME280;44154;45.506;-122.806;2023-02-27T06:11:05;99954.50;;;23.59;33.23
50854;BME280;44154;45.506;-122.806;2023-02-27T06:13:31;99963.03;;;23.83;33.40
50854;BME280;44154;45.506;-122.806;2023-02-27T06:15:58;99966.09;;;24.12;32.48
50854;BME280;44154;45.506;-122.806;2023-02-27T06:18:24;99957.63;;;24.34;31.91
50854;BME280;44154;45.506;-122.806;2023-02-27T06:20:50;99951.34;;;24.34;31.80
50854;BME280;44154;45.506;-122.806;2023-02-27T06:23:16;99940.97;;;24.10;31.80
50854;BME280;44154;45.506;-122.806;2023-02-27T06:25:42;99955.97;;;24.02;32.00
50854;BME280;44154;45.506;-122.806;2023-02-27T06:28:09;99952.41;;;23.86;32.11
50854;BME280;44154;45.506;-122.806;2023-02-27T06:30:36;99949.59;;;23.71;32.31
50854;BME280;44154;45.506;-122.806;2023-02-27T06:33:02;99949.03;;;23.64;32.24
50854;BME280;44154;45.506;-122.806;2023-02-27T06:35:29;99946.84;;;23.55;32.40
50854;BME280;44154;45.506;-122.806;2023-02-27T06:37:56;99939.16;;;23.47;32.15
50854;BME280;44154;45.506;-122.806;2023-02-27T06:40:22;99933.47;;;23.54;32.76
50854;BME280;44154;45.506;-122.806;2023-02-27T06:42:48;99942.22;;;23.77;32.87
50854;BME280;44154;45.506;-122.806;2023-02-27T06:45:15;99938.50;;;24.03;32.06
50854;BME280;44154;45.506;-122.806;2023-02-27T06:47:42;99922.38;;;24.17;31.22
50854;BME280;44154;45.506;-122.806;2023-02-27T06:50:11;99938.75;;;24.33;31.29
50854;BME280;44154;45.506;-122.806;2023-02-27T06:52:39;99930.84;;;24.21;31.20
50854;BME280;44154;45.506;-122.806;2023-02-27T06:55:06;99938.50;;;24.09;31.58
50854;BME280;44154;45.506;-122.806;2023-02-27T06:57:32;99926.13;;;23.85;31.65
50854;BME280;44154;45.506;-122.806;2023-02-27T06:59:59;99931.59;;;23.80;31.93
50854;BME280;44154;45.506;-122.806;2023-02-27T07:02:58;99925.84;;;23.71;31.86
50854;BME280;44154;45.506;-122.806;2023-02-27T07:05:27;99929.69;;;23.76;31.71
50854;BME280;44154;45.506;-122.806;2023-02-27T07:07:53;99902.06;;;23.62;31.61
50854;BME280;44154;45.506;-122.806;2023-02-27T07:10:20;99929.38;;;23.72;31.75
50854;BME280;44154;45.506;-122.806;2023-02-27T07:12:46;99919.56;;;23.66;31.48
50854;BME280;44154;45.506;-122.806;2023-02-27T07:15:12;99899.03;;;23.58;31.69
50854;BME280;44154;45.506;-122.806;2023-02-27T07:17:38;99903.72;;;23.63;31.51
50854;BME280;44154;45.506;-122.806;2023-02-27T07:20:06;99907.50;;;23.62;31.46
50854;BME280;44154;45.506;-122.806;2023-02-27T07:22:33;99904.25;;;23.60;31.38
50854;BME280;44154;45.506;-122.806;2023-02-27T07:24:59;99898.50;;;23.56;31.37
50854;BME280;44154;45.506;-122.806;2023-02-27T07:27:26;99896.31;;;23.53;31.40
50854;BME280;44154;45.506;-122.806;2023-02-27T07:29:52;99900.66;;;23.49;31.89
50854;BME280;44154;45.506;-122.806;2023-02-27T07:32:18;99897.13;;;23.64;36.76
50854;BME280;44154;45.506;-122.806;2023-02-27T07:34:44;99883.53;;;23.89;35.98
50854;BME280;44154;45.506;-122.806;2023-02-27T07:37:11;99873.72;;;24.09;34.96
50854;BME280;44154;45.506;-122.806;2023-02-27T07:39:37;99882.44;;;24.32;33.62
50854;BME280;44154;45.506;-122.806;2023-02-27T07:42:04;99870.13;;;24.24;32.16
50854;BME280;44154;45.506;-122.806;2023-02-27T07:44:30;99867.69;;;24.22;31.60
50854;BME280;44154;45.506;-122.806;2023-02-27T07:46:56;99868.78;;;24.16;31.99
50854;BME280;44154;45.506;-122.806;2023-02-27T07:49:22;99876.44;;;24.09;32.10
50854;BME280;44154;45.506;-122.806;2023-02-27T07:51:48;99860.06;;;23.99;32.49
50854;BME280;44154;45.506;-122.806;2023-02-27T07:54:14;99852.94;;;23.93;32.72
50854;BME280;44154;45.506;-122.806;2023-02-27T07:56:41;99859.72;;;23.85;32.71
50854;BME280;44154;45.506;-122.806;2023-02-27T07:59:07;99863.84;;;23.77;32.88
50854;BME280;44154;45.506;-122.806;2023-02-27T08:01:33;99857.81;;;23.70;32.90
50854;BME280;44154;45.506;-122.806;2023-02-27T08:03:59;99861.88;;;23.62;33.17
50854;BME280;44154;45.506;-122.806;2023-02-27T08:06:25;99860.25;;;23.56;33.18
50854;BME280;44154;45.506;-122.806;2023-02-27T08:08:51;99842.47;;;23.43;33.24
50854;BME280;44154;45.506;-122.806;2023-02-27T08:11:18;99848.50;;;23.45;33.25
50854;BME280;44154;45.506;-122.806;2023-02-27T08:13:44;99829.88;;;23.32;33.24
50854;BME280;44154;45.506;-122.806;2023-02-27T08:16:11;99839.22;;;23.56;35.51
50854;BME280;44154;45.506;-122.806;2023-02-27T08:18:37;99845.25;;;23.84;34.70
50854;BME280;44154;45.506;-122.806;2023-02-27T08:21:04;99835.16;;;24.16;33.63
50854;BME280;44154;45.506;-122.806;2023-02-27T08:23:31;99835.41;;;24.30;34.20
50854;BME280;44154;45.506;-122.806;2023-02-27T08:25:59;99836.78;;;24.17;33.28
50854;BME280;44154;45.506;-122.806;2023-02-27T08:28:26;99821.22;;;23.97;33.38
50854;BME280;44154;45.506;-122.806;2023-02-27T08:30:53;99825.88;;;23.91;33.54
50854;BME280;44154;45.506;-122.806;2023-02-27T08:33:20;99823.13;;;23.81;34.39
50854;BME280;44154;45.506;-122.806;2023-02-27T08:35:46;99813.56;;;23.73;34.14
50854;BME280;44154;45.506;-122.806;2023-02-27T08:38:13;99814.91;;;23.65;34.04
50854;BME280;44154;45.506;-122.806;2023-02-27T08:40:39;99815.19;;;23.59;33.92
50854;BME280;44154;45.506;-122.806;2023-02-27T08:43:05;99810.56;;;23.54;34.37
50854;BME280;44154;45.506;-122.806;2023-02-27T08:45:31;99797.69;;;23.44;35.86
50854;BME280;44154;45.506;-122.806;2023-02-27T08:47:57;99810.81;;;23.47;35.63
50854;BME280;44154;45.506;-122.806;2023-02-27T08:50:23;99797.97;;;23.58;35.25
50854;BME280;44154;45.506;-122.806;2023-02-27T08:52:50;99805.91;;;24.01;34.25
50854;BME280;44154;45.506;-122.806;2023-02-27T08:55:16;99795.47;;;24.39;33.25
50854;BME280;44154;45.506;-122.806;2023-02-27T08:57:42;99793.75;;;24.58;33.09
50854;BME280;44154;45.506;-122.806;2023-02-27T09:00:09;99785.06;;;24.46;31.94
50854;BME280;44154;45.506;-122.806;2023-02-27T09:02:35;99774.16;;;24.25;31.38
50854;BME280;44154;45.506;-122.806;2023-02-27T09:05:01;99765.47;;;24.08;31.90
50854;BME280;44154;45.506;-122.806;2023-02-27T09:07:27;99759.19;;;23.97;32.19
50854;BME280;44154;45.506;-122.806;2023-02-27T09:09:54;99740.06;;;23.82;32.36
50854;BME280;44154;45.506;-122.806;2023-02-27T09:12:20;99750.47;;;23.80;32.92
50854;BME280;44154;45.506;-122.806;2023-02-27T09:14:46;99744.44;;;23.67;33.02
50854;BME280;44154;45.506;-122.806;2023-02-27T09:17:12;99737.06;;;23.58;33.16
50854;BME280;44154;45.506;-122.806;2023-02-27T09:19:38;99738.16;;;23.46;33.65
50854;BME280;44154;45.506;-122.806;2023-02-27T09:22:04;99708.66;;;23.17;34.50
50854;BME280;44154;45.506;-122.806;2023-02-27T09:24:30;99728.88;;;23.21;35.56
50854;BME280;44154;45.506;-122.806;2023-02-27T09:26:56;99723.41;;;23.42;37.34
50854;BME280;44154;45.506;-122.806;2023-02-27T09:29:22;99721.50;;;23.58;36.54
50854;BME280;44154;45.506;-122.806;2023-02-27T09:31:50;99716.56;;;23.86;36.23
50854;BME280;44154;45.506;-122.806;2023-02-27T09:34:16;99717.09;;;24.03;33.98
50854;BME280;44154;45.506;-122.806;2023-02-27T09:36:42;99713.84;;;24.01;33.55
50854;BME280;44154;45.506;-122.806;2023-02-27T09:39:08;99700.44;;;23.89;33.92
50854;BME280;44154;45.506;-122.806;2023-02-27T09:41:46;99696.63;;;23.75;34.03
50854;BME280;44154;45.506;-122.806;2023-02-27T09:47:03;99680.25;;;23.49;34.60
50854;BME280;44154;45.506;-122.806;2023-02-27T09:49:34;99680.81;;;23.41;34.54
50854;BME280;44154;45.506;-122.806;2023-02-27T09:52:07;99678.63;;;23.33;34.64
50854;BME280;44154;45.506;-122.806;2023-02-27T09:54:38;99677.25;;;23.41;36.29
50854;BME280;44154;45.506;-122.806;2023-02-27T09:57:06;99662.81;;;23.45;36.42
50854;BME280;44154;45.506;-122.806;2023-02-27T09:59:50;99651.84;;;23.66;34.79
50854;BME280;44154;45.506;-122.806;2023-02-27T10:02:33;99655.59;;;24.01;34.85
50854;BME280;44154;45.506;-122.806;2023-02-27T10:15:53;99617.72;;;23.48;34.08
50854;BME280;44154;45.506;-122.806;2023-02-27T10:18:53;99610.91;;;23.40;34.49
50854;BME280;44154;45.506;-122.806;2023-02-27T10:21:49;99602.19;;;23.33;35.11
50854;BME280;44154;45.506;-122.806;2023-02-27T10:24:27;99600.53;;;23.52;35.87
50854;BME280;44154;45.506;-122.806;2023-02-27T10:26:57;99585.72;;;23.64;34.68
50854;BME280;44154;45.506;-122.806;2023-02-27T10:29:30;99588.34;;;24.05;34.70
50854;BME280;44154;45.506;-122.806;2023-02-27T10:32:19;99584.75;;;24.10;33.43
50854;BME280;44154;45.506;-122.806;2023-02-27T10:35:06;99585.38;;;23.96;33.09
50854;BME280;44154;45.506;-122.806;2023-02-27T10:37:35;99574.19;;;23.82;33.73
50854;BME280;44154;45.506;-122.806;2023-02-27T10:40:03;99566.06;;;23.67;33.44
50854;BME280;44154;45.506;-122.806;2023-02-27T10:42:35;99545.63;;;23.54;33.84
50854;BME280;44154;45.506;-122.806;2023-02-27T10:45:03;99550.56;;;23.42;34.35
50854;BME280;44154;45.506;-122.806;2023-02-27T10:47:30;99550.03;;;23.34;34.25
50854;BME280;44154;45.506;-122.806;2023-02-27T10:49:56;99525.75;;;23.38;35.03
50854;BME280;44154;45.506;-122.806;2023-02-27T10:52:25;99524.88;;;23.53;35.43
50854;BME280;44154;45.506;-122.806;2023-02-27T10:54:51;99515.22;;;23.76;34.14
50854;BME280;44154;45.506;-122.806;2023-02-27T10:57:30;99522.19;;;24.08;33.82
50854;BME280;44154;45.506;-122.806;2023-02-27T11:00:01;99511.81;;;24.10;33.38
50854;BME280;44154;45.506;-122.806;2023-02-27T11:02:42;99499.28;;;23.99;33.00
50854;BME280;44154;45.506;-122.806;2023-02-27T11:07:47;99475.09;;;23.66;33.44
50854;BME280;44154;45.506;-122.806;2023-02-27T11:12:42;99478.72;;;23.46;33.86
50854;BME280;44154;45.506;-122.806;2023-02-27T11:15:24;99478.25;;;23.34;34.10
50854;BME280;44154;45.506;-122.806;2023-02-27T11:17:51;99476.84;;;23.36;34.51
50854;BME280;44154;45.506;-122.806;2023-02-27T11:23:19;99472.81;;;23.84;33.64
50854;BME280;44154;45.506;-122.806;2023-02-27T11:25:46;99454.13;;;24.12;33.70
50854;BME280;44154;45.506;-122.806;2023-02-27T11:28:23;99451.13;;;24.08;32.86
50854;BME280;44154;45.506;-122.806;2023-02-27T11:31:21;99454.50;;;23.95;32.71
50854;BME280;44154;45.506;-122.806;2023-02-27T11:33:55;99440.66;;;23.70;33.05
50854;BME280;44154;45.506;-122.806;2023-02-27T11:36:23;99457.06;;;23.65;33.12
50854;BME280;44154;45.506;-122.806;2023-02-27T11:39:03;99448.69;;;23.51;33.48
50854;BME280;44154;45.506;-122.806;2023-02-27T11:41:31;99423.94;;;23.32;33.33
50854;BME280;44154;45.506;-122.806;2023-02-27T11:44:01;99430.75;;;23.30;33.91
50854;BME280;44154;45.506;-122.806;2023-02-27T11:46:28;99419.78;;;23.45;34.87
50854;BME280;44154;45.506;-122.806;2023-02-27T11:49:06;99403.28;;;23.61;34.70
50854;BME280;44154;45.506;-122.806;2023-02-27T11:52:06;99407.47;;;23.98;33.22
50854;BME280;44154;45.506;-122.806;2023-02-27T11:54:39;99397.50;;;24.12;33.19
50854;BME280;44154;45.506;-122.806;2023-02-27T11:57:31;99391.34;;;24.01;32.75
50854;BME280;44154;45.506;-122.806;2023-02-27T12:10:18;99357.28;;;23.38;33.12
50854;BME280;44154;45.506;-122.806;2023-02-27T12:12:54;99353.75;;;23.33;33.54
50854;BME280;44154;45.506;-122.806;2023-02-27T12:15:44;99344.34;;;23.54;34.57
50854;BME280;44154;45.506;-122.806;2023-02-27T12:18:33;99339.50;;;23.81;33.49
50854;BME280;44154;45.506;-122.806;2023-02-27T12:21:03;99338.75;;;24.10;33.22
50854;BME280;44154;45.506;-122.806;2023-02-27T12:26:35;99312.97;;;23.92;32.77
50854;BME280;44154;45.506;-122.806;2023-02-27T12:29:18;99312.81;;;23.72;32.68
50854;BME280;44154;45.506;-122.806;2023-02-27T12:32:00;99312.06;;;23.62;32.83
50854;BME280;44154;45.506;-122.806;2023-02-27T12:34:34;99305.34;;;23.49;32.92
50854;BME280;44154;45.506;-122.806;2023-02-27T12:37:11;99299.13;;;23.38;32.72
50854;BME280;44154;45.506;-122.806;2023-02-27T12:39:41;99292.34;;;23.30;32.92
50854;BME280;44154;45.506;-122.806;2023-02-27T12:50:24;99263.34;;;24.09;32.31
50854;BME280;44154;45.506;-122.806;2023-02-27T13:04:51;99287.44;;;23.32;33.01
50854;BME280;44154;45.506;-122.806;2023-02-27T13:09:57;99298.22;;;23.53;33.62
50854;BME280;44154;45.506;-122.806;2023-02-27T13:12:54;99285.75;;;23.76;33.44
50854;BME280;44154;45.506;-122.806;2023-02-27T13:15:31;99269.56;;;24.14;32.44
50854;BME280;44154;45.506;-122.806;2023-02-27T13:18:09;99257.25;;;24.17;32.01
50854;BME280;44154;45.506;-122.806;2023-02-27T13:20:51;99254.69;;;24.01;31.86
50854;BME280;44154;45.506;-122.806;2023-02-27T13:26:30;99249.22;;;23.67;32.65
50854;BME280;44154;45.506;-122.806;2023-02-27T13:28:59;99269.53;;;23.55;32.67
50854;BME280;44154;45.506;-122.806;2023-02-27T13:31:52;99258.63;;;23.50;32.96
50854;BME280;44154;45.506;-122.806;2023-02-27T13:34:33;99276.75;;;23.76;33.03
50854;BME280;44154;45.506;-122.806;2023-02-27T13:37:06;99249.00;;;23.93;32.71
50854;BME280;44154;45.506;-122.806;2023-02-27T13:45:02;99220.25;;;24.49;31.21
50854;BME280;44154;45.506;-122.806;2023-02-27T13:52:46;99187.47;;;24.00;31.87
50854;BME280;44154;45.506;-122.806;2023-02-27T13:55:41;99182.13;;;23.85;32.13
50854;BME280;44154;45.506;-122.806;2023-02-27T13:58:15;99183.00;;;23.80;32.27
50854;BME280;44154;45.506;-122.806;2023-02-27T14:00:42;99173.50;;;24.02;32.69
50854;BME280;44154;45.506;-122.806;2023-02-27T14:03:21;99170.53;;;24.22;32.15
50854;BME280;44154;45.506;-122.806;2023-02-27T14:05:51;99163.78;;;24.39;31.50
50854;BME280;44154;45.506;-122.806;2023-02-27T14:08:24;99166.38;;;24.49;31.27
50854;BME280;44154;45.506;-122.806;2023-02-27T14:22:27;99155.41;;;23.77;32.32
50854;BME280;44154;45.506;-122.806;2023-02-27T14:24:54;99149.41;;;24.04;32.71
50854;BME280;44154;45.506;-122.806;2023-02-27T14:27:36;99121.91;;;24.19;31.75
50854;BME280;44154;45.506;-122.806;2023-02-27T14:30:05;99128.53;;;24.56;31.13
50854;BME280;44154;45.506;-122.806;2023-02-27T14:32:36;99124.66;;;24.57;30.85
50854;BME280;44154;45.506;-122.806;2023-02-27T14:35:05;99130.88;;;24.44;30.95
50854;BME280;44154;45.506;-122.806;2023-02-27T14:37:31;99098.91;;;24.01;31.30
50854;BME280;44154;45.506;-122.806;2023-02-27T14:40:01;99139.25;;;24.10;31.38
50854;BME280;44154;45.506;-122.806;2023-02-27T14:43:09;99145.72;;;23.95;31.39
50854;BME280;44154;45.506;-122.806;2023-02-27T14:45:37;99125.91;;;23.79;31.37
50854;BME280;44154;45.506;-122.806;2023-02-27T14:48:08;99159.53;;;24.03;31.82
50854;BME280;44154;45.506;-122.806;2023-02-27T14:50:37;99155.88;;;24.37;31.91
50854;BME280;44154;45.506;-122.806;2023-02-27T14:53:05;99140.75;;;24.83;30.57
50854;BME280;44154;45.506;-122.806;2023-02-27T14:55:34;99144.06;;;24.99;30.50
50854;BME280;44154;45.506;-122.806;2023-02-27T14:58:08;99145.06;;;24.89;30.47
50854;BME280;44154;45.506;-122.806;2023-02-27T15:00:40;99144.69;;;24.77;30.63
50854;BME280;44154;45.506;-122.806;2023-02-27T15:03:31;99148.19;;;24.58;31.34
50854;BME280;44154;45.506;-122.806;2023-02-27T15:06:01;99142.13;;;24.42;32.12
50854;BME280;44154;45.506;-122.806;2023-02-27T15:08:36;99155.69;;;24.29;32.03
50854;BME280;44154;45.506;-122.806;2023-02-27T15:11:03;99144.94;;;24.13;32.14
50854;BME280;44154;45.506;-122.806;2023-02-27T15:13:38;99136.00;;;24.07;32.55
50854;BME280;44154;45.506;-122.806;2023-02-27T15:19:19;99144.06;;;24.18;32.46
50854;BME280;44154;45.506;-122.806;2023-02-27T15:21:51;99148.38;;;24.67;31.27
50854;BME280;44154;45.506;-122.806;2023-02-27T15:24:23;99146.06;;;25.13;30.74
50854;BME280;44154;45.506;-122.806;2023-02-27T15:26:56;99138.59;;;25.18;30.49
50854;BME280;44154;45.506;-122.806;2023-02-27T15:29:28;99145.09;;;25.03;30.52
50854;BME280;44154;45.506;-122.806;2023-02-27T15:31:56;99131.94;;;24.86;31.21
50854;BME280;44154;45.506;-122.806;2023-02-27T15:34:23;99138.75;;;24.70;30.78